Filia Ariea — PIET — position and weather

sailwx.info

Track history (hours):
 
Tides and Currents Weather Stations Pressure Air Temp Water Temp Dewpoint Dewpoint Depression Visibility Wind Speed Wind Dir Waves Ship Positions

Filia Ariea

Last reported at 2017-Oct-10 12:46 UTC. Time now 2017-Oct-19 15:10 UTC.
Position N 49°46' W 003°25'.
Warning: this ship's position is 9 days out of date.

Length 90 m; draft 3.5 m.

Type: Ship. MMSI: 244662000.

Date/timePositionNaut miles runAvg speedWind from/ knotsBaromVisibWave heightAir tempDewpointWater temp
2017-Oct-10 12:46N 49°46' W 003°25'310.3
2017-Oct-10 12:31N 49°48' W 003°22'5 9.8
2017-Oct-10 12:00N 49°50' W 003°15'6 9.2
2017-Oct-10 11:22N 49°53' W 003°07'3 8.9
2017-Oct-10 11:00N 49°55' W 003°03'4 8.6
2017-Oct-10 10:30N 49°57' W 002°57'5 8.4
2017-Oct-10 09:55N 49°58' W 002°50'3 8.3
2017-Oct-10 09:30N 49°59' W 002°45'9311.5
2017-Oct-10 01:21N 50°27' W 000°25'4 9.9
2017-Oct-10 01:00N 50°28' W 000°20'5 9.4
2017-Oct-10 00:30N 50°30' W 000°13'4 9.0
2017-Oct-10 00:00N 50°31' W 000°07'4 8.5
2017-Oct-09 23:30N 50°32' W 000°00'4 8.2
2017-Oct-09 23:00N 50°33' E 000°06'4 8.4
2017-Oct-09 22:30N 50°35' E 000°12'4 8.7
2017-Oct-09 22:01N 50°36' E 000°19'5 9.2
2017-Oct-09 21:30N 50°37' E 000°26'510.1
2017-Oct-09 21:00N 50°38' E 000°34'511.0
2017-Oct-09 20:31N 50°41' E 000°41'611.5
2017-Oct-09 20:00N 50°44' E 000°49'611.8
2017-Oct-09 19:30N 50°47' E 000°57'611.6
2017-Oct-09 18:58N 50°50' E 001°05'511.3
2017-Oct-09 18:30N 50°53' E 001°12'610.9
2017-Oct-09 18:00N 50°56' E 001°20'510.3
2017-Oct-09 17:30N 50°60' E 001°26'5 9.2
2017-Oct-09 16:59N 51°03' E 001°31'4 8.1
2017-Oct-09 16:30N 51°02' E 001°37'5 9.9
2017-Oct-09 16:00N 50°59' E 001°44'4 7.7
2017-Oct-09 15:30N 50°58' E 001°50'2 1.2
2017-Oct-09 14:14N 50°58' E 001°52'0 0.0
2017-Oct-09 11:59N 50°58' E 001°52'0 0.0
2017-Oct-09 11:28N 50°58' E 001°52'0 0.0
2017-Oct-09 09:33N 50°58' E 001°52'0 0.0
2017-Oct-09 09:27N 50°58' E 001°52'0 0.0
2017-Oct-09 09:00N 50°58' E 001°52'0 0.0
2017-Oct-09 08:30N 50°58' E 001°52'0 0.0
2017-Oct-09 07:45N 50°58' E 001°52'0 0.0
2017-Oct-09 07:05N 50°58' E 001°52'0 0.0
2017-Oct-09 06:47N 50°58' E 001°52'0 0.0
2017-Oct-09 06:20N 50°58' E 001°52'0 0.0
2017-Oct-09 05:56N 50°58' E 001°52'0 0.0
2017-Oct-09 05:20N 50°58' E 001°52'0 0.0
2017-Oct-09 04:58N 50°58' E 001°52'0 0.0
2017-Oct-09 04:25N 50°58' E 001°52'0 0.0
2017-Oct-09 03:55N 50°58' E 001°52'0 0.0
2017-Oct-09 03:28N 50°58' E 001°52'0 0.0
2017-Oct-09 03:01N 50°58' E 001°52'0 0.0
2017-Oct-09 02:21N 50°58' E 001°52'0 0.0
2017-Oct-09 01:57N 50°58' E 001°52'0 0.0
2017-Oct-09 01:30N 50°58' E 001°52'0 0.0
2017-Oct-09 01:00N 50°58' E 001°52'0 0.0
2017-Oct-09 00:29N 50°58' E 001°52'0 0.0
2017-Oct-08 23:59N 50°58' E 001°52'0 0.0
2017-Oct-08 23:29N 50°58' E 001°52'0 0.0
2017-Oct-08 22:53N 50°58' E 001°52'0 0.0
2017-Oct-08 22:23N 50°58' E 001°52'0 0.0
2017-Oct-08 21:58N 50°58' E 001°52'0 0.0
2017-Oct-08 21:16N 50°58' E 001°52'0 0.0
2017-Oct-08 20:58N 50°58' E 001°52'0 0.0
2017-Oct-08 20:28N 50°58' E 001°52'0 0.0
2017-Oct-08 19:15N 50°58' E 001°52'0 0.0
2017-Oct-08 18:51N 50°58' E 001°52'0 0.0
2017-Oct-08 18:15N 50°58' E 001°52'0 0.0
2017-Oct-08 17:51N 50°58' E 001°52'0 0.0
2017-Oct-08 17:26N 50°58' E 001°52'0 0.0
2017-Oct-08 16:29N 50°58' E 001°52'0 0.0
2017-Oct-08 15:38N 50°58' E 001°52'0 0.0
2017-Oct-08 15:13N 50°58' E 001°52'0 0.0
2017-Oct-08 14:46N 50°58' E 001°52'0 0.0
2017-Oct-08 14:07N 50°58' E 001°52'0 0.0
2017-Oct-08 11:54N 50°58' E 001°52'0 0.0
2017-Oct-08 11:30N 50°58' E 001°52'0 0.0
2017-Oct-08 11:00N 50°58' E 001°52'0 0.0
2017-Oct-08 10:26N 50°58' E 001°52'0 0.0
2017-Oct-08 09:59N 50°58' E 001°52'0 0.0
2017-Oct-08 09:23N 50°58' E 001°52'0 0.0
2017-Oct-08 08:53N 50°58' E 001°52'0 0.0
2017-Oct-08 08:22N 50°58' E 001°52'0 0.0
2017-Oct-08 07:58N 50°58' E 001°52'0 0.0
2017-Oct-08 07:22N 50°58' E 001°52'0 0.0
2017-Oct-08 06:10N 50°58' E 001°52'0 0.0
2017-Oct-08 06:00N 50°58' E 001°52'0 0.0
2017-Oct-08 05:30N 50°58' E 001°52'0 0.0
2017-Oct-08 04:57N 50°58' E 001°52'0 0.0
2017-Oct-08 04:24N 50°58' E 001°52'0 0.0
2017-Oct-08 03:36N 50°58' E 001°52'0 0.0
2017-Oct-08 03:29N 50°58' E 001°52'0 0.0
2017-Oct-08 02:59N 50°58' E 001°52'0 0.0
2017-Oct-08 02:29N 50°58' E 001°52'0 0.0
2017-Oct-08 01:44N 50°58' E 001°52'0 0.0
2017-Oct-08 01:19N 50°58' E 001°52'0 0.0
2017-Oct-08 00:52N 50°58' E 001°52'0 0.0
2017-Oct-08 00:19N 50°58' E 001°52'0 0.0
2017-Oct-07 23:55N 50°58' E 001°52'0 0.0
2017-Oct-07 23:25N 50°58' E 001°52'0 0.0
2017-Oct-07 22:54N 50°58' E 001°52'0 0.0
2017-Oct-07 22:30N 50°58' E 001°52'0 0.0
2017-Oct-07 22:00N 50°58' E 001°52'0 0.0
2017-Oct-07 21:30N 50°58' E 001°52'0 0.0
2017-Oct-07 20:47N 50°58' E 001°52'0 0.0
2017-Oct-07 20:23N 50°58' E 001°52'0 0.0
2017-Oct-07 18:53N 50°58' E 001°52'0 0.0
2017-Oct-07 18:28N 50°58' E 001°52'0 0.0
2017-Oct-07 17:46N 50°58' E 001°52'0 0.0
2017-Oct-07 17:28N 50°58' E 001°52'0 0.0
2017-Oct-07 16:58N 50°58' E 001°52'0 0.0
2017-Oct-07 16:16N 50°58' E 001°52'0 0.0
2017-Oct-07 16:00N 50°58' E 001°52'0 0.0
2017-Oct-07 15:24N 50°58' E 001°52'0 0.0
2017-Oct-07 14:48N 50°58' E 001°52'0 0.0
2017-Oct-07 14:30N 50°58' E 001°52'0 0.0
2017-Oct-07 14:00N 50°58' E 001°52'0 0.0
2017-Oct-07 12:38N 50°58' E 001°52'0 0.0
2017-Oct-07 12:20N 50°58' E 001°52'0 0.0
2017-Oct-07 11:59N 50°58' E 001°52'0 0.0
2017-Oct-07 11:22N 50°58' E 001°52'0 0.0
2017-Oct-07 10:58N 50°58' E 001°52'0 0.0
2017-Oct-07 10:10N 50°58' E 001°52'0 0.0
2017-Oct-07 09:55N 50°58' E 001°52'0 0.0
2017-Oct-07 09:28N 50°58' E 001°52'0 0.0
2017-Oct-07 09:00N 50°58' E 001°52'0 0.0
2017-Oct-07 08:30N 50°58' E 001°52'0 0.0
2017-Oct-07 08:00N 50°58' E 001°52'0 0.0
2017-Oct-07 07:12N 50°58' E 001°52'0 0.0
2017-Oct-07 06:47N 50°58' E 001°52'0 0.0
2017-Oct-07 06:23N 50°58' E 001°52'0 0.0
2017-Oct-07 05:59N 50°58' E 001°52'0 0.0
2017-Oct-07 05:29N 50°58' E 001°52'0 0.0
2017-Oct-07 04:59N 50°58' E 001°52'0 0.0
2017-Oct-07 04:25N 50°58' E 001°52'0 0.0
2017-Oct-07 03:55N 50°58' E 001°52'0 0.0
2017-Oct-07 03:28N 50°58' E 001°52'0 0.0
2017-Oct-07 02:58N 50°58' E 001°52'0 0.0
2017-Oct-07 02:22N 50°58' E 001°52'0 0.0
2017-Oct-07 01:57N 50°58' E 001°52'0 0.0
2017-Oct-07 01:21N 50°58' E 001°52'0 0.0
2017-Oct-07 00:57N 50°58' E 001°52'0 0.0
2017-Oct-07 00:24N 50°58' E 001°52'0 0.0
2017-Oct-06 23:56N 50°58' E 001°52'0 0.0
2017-Oct-06 23:20N 50°58' E 001°52'0 0.0
2017-Oct-06 22:50N 50°58' E 001°52'0 0.0
2017-Oct-06 22:26N 50°58' E 001°52'0 0.0
2017-Oct-06 21:59N 50°58' E 001°52'0 0.0
2017-Oct-06 21:22N 50°58' E 001°52'0 0.0
2017-Oct-06 20:55N 50°58' E 001°52'0 0.0
2017-Oct-06 20:25N 50°58' E 001°52'0 0.0
2017-Oct-06 19:46N 50°58' E 001°52'0 0.0
2017-Oct-06 19:15N 50°58' E 001°52'0 0.0
2017-Oct-06 19:00N 50°58' E 001°52'0 0.0
2017-Oct-06 18:30N 50°58' E 001°52'0 0.0
2017-Oct-06 18:00N 50°58' E 001°52'0 0.0
2017-Oct-06 17:30N 50°58' E 001°52'0 0.0
2017-Oct-06 17:00N 50°58' E 001°52'0 0.0
2017-Oct-06 16:29N 50°58' E 001°52'0 0.0
2017-Oct-06 14:41N 50°58' E 001°52'0 0.0
2017-Oct-06 14:16N 50°58' E 001°52'0 0.0
2017-Oct-06 13:16N 50°58' E 001°52'0 0.0
2017-Oct-06 12:52N 50°58' E 001°52'0 0.0
2017-Oct-06 12:12N 50°58' E 001°52'0 0.0
2017-Oct-06 11:51N 50°58' E 001°52'0 0.0
2017-Oct-06 11:27N 50°58' E 001°52'0 0.0
2017-Oct-06 10:33N 50°58' E 001°52'0 0.0
2017-Oct-06 10:27N 50°58' E 001°52'0 0.0
2017-Oct-06 08:59N 50°58' E 001°52'0 0.0
2017-Oct-06 08:14N 50°58' E 001°52'0 0.0
2017-Oct-06 07:53N 50°58' E 001°52'0 0.0
2017-Oct-06 07:28N 50°58' E 001°52'0 0.0
2017-Oct-06 06:58N 50°58' E 001°52'0 0.0
2017-Oct-06 06:22N 50°58' E 001°52'0 0.0
2017-Oct-06 05:58N 50°58' E 001°52'0 0.0
2017-Oct-06 05:31N 50°58' E 001°52'0 0.0
2017-Oct-06 04:51N 50°58' E 001°52'0 0.0
2017-Oct-06 04:24N 50°58' E 001°52'0 0.0
2017-Oct-06 04:00N 50°58' E 001°52'0 0.0
2017-Oct-06 03:21N 50°58' E 001°52'0 0.0
2017-Oct-06 02:56N 50°58' E 001°52'0 0.0
2017-Oct-06 02:29N 50°58' E 001°52'0 0.0
2017-Oct-06 01:59N 50°58' E 001°52'0 0.0
2017-Oct-06 01:26N 50°58' E 001°52'0 0.0
2017-Oct-06 00:59N 50°58' E 001°52'0 0.0
2017-Oct-06 00:22N 50°58' E 001°52'0 0.0
2017-Oct-05 23:46N 50°58' E 001°52'0 0.0
2017-Oct-05 23:25N 50°58' E 001°52'0 0.0
2017-Oct-05 22:58N 50°58' E 001°52'0 0.0
2017-Oct-05 22:30N 50°58' E 001°52'0 0.0
2017-Oct-05 22:00N 50°58' E 001°52'0 0.0
2017-Oct-05 21:30N 50°58' E 001°52'0 0.0
2017-Oct-05 20:51N 50°58' E 001°52'0 0.0
2017-Oct-05 20:27N 50°58' E 001°52'0 0.0
2017-Oct-05 19:59N 50°58' E 001°52'0 0.0
2017-Oct-05 19:29N 50°58' E 001°52'0 0.0
2017-Oct-05 18:53N 50°58' E 001°52'0 0.0
2017-Oct-05 18:26N 50°58' E 001°52'0 0.0
2017-Oct-05 17:31N 50°58' E 001°52'0 0.0
2017-Oct-05 17:28N 50°58' E 001°52'0 0.0
2017-Oct-05 16:52N 50°58' E 001°52'0 0.0
2017-Oct-05 15:27N 50°58' E 001°52'0 0.0
2017-Oct-05 14:51N 50°58' E 001°52'0 0.0
2017-Oct-05 14:27N 50°58' E 001°52'0 0.0
2017-Oct-05 14:00N 50°58' E 001°52'0 0.0
2017-Oct-05 13:30N 50°58' E 001°52'0 0.0
2017-Oct-05 12:53N 50°58' E 001°52'0 0.0
2017-Oct-05 12:29N 50°58' E 001°52'0 0.0
2017-Oct-05 11:59N 50°58' E 001°52'0 0.0
2017-Oct-05 11:23N 50°58' E 001°52'0 0.0
2017-Oct-05 10:59N 50°58' E 001°52'0 0.0
2017-Oct-05 10:22N 50°58' E 001°52'0 0.0
2017-Oct-05 09:58N 50°58' E 001°52'0 0.0
2017-Oct-05 09:28N 50°58' E 001°52'0 0.0
2017-Oct-05 08:52N 50°58' E 001°52'0 0.0
2017-Oct-05 08:15N 50°58' E 001°52'0 0.0
2017-Oct-05 08:00N 50°58' E 001°52'0 0.0
2017-Oct-05 07:30N 50°58' E 001°52'0 0.0
2017-Oct-05 06:57N 50°58' E 001°52'0 0.0
2017-Oct-05 06:30N 50°58' E 001°52'0 0.0
2017-Oct-05 05:56N 50°58' E 001°52'0 0.0
2017-Oct-05 05:26N 50°58' E 001°52'0 0.0
2017-Oct-05 04:59N 50°58' E 001°52'0 0.0
2017-Oct-05 04:20N 50°58' E 001°52'0 0.0
2017-Oct-05 03:59N 50°58' E 001°52'0 0.0
2017-Oct-05 03:22N 50°58' E 001°52'0 0.0
2017-Oct-05 02:58N 50°58' E 001°52'0 0.0
2017-Oct-05 02:28N 50°58' E 001°52'0 0.0
2017-Oct-05 01:55N 50°58' E 001°52'0 0.0
2017-Oct-05 01:30N 50°58' E 001°52'0 0.0
2017-Oct-05 00:54N 50°58' E 001°52'0 0.0
2017-Oct-05 00:27N 50°58' E 001°52'0 0.0
2017-Oct-04 23:57N 50°58' E 001°52'0 0.0
2017-Oct-04 23:30N 50°58' E 001°52'0 0.0
2017-Oct-04 22:59N 50°58' E 001°52'0 0.0
2017-Oct-04 22:20N 50°58' E 001°52'0 0.0
2017-Oct-04 21:56N 50°58' E 001°52'0 0.0
2017-Oct-04 21:29N 50°58' E 001°52'0 0.0
2017-Oct-04 20:58N 50°58' E 001°52'0 0.0
2017-Oct-04 20:28N 50°58' E 001°52'0 0.0
2017-Oct-04 19:58N 50°58' E 001°52'0 0.0
2017-Oct-04 19:22N 50°58' E 001°52'0 0.0
2017-Oct-04 18:52N 50°58' E 001°52'0 0.0
2017-Oct-04 18:15N 50°58' E 001°52'0 0.0
2017-Oct-04 17:57N 50°58' E 001°52'0 0.0
2017-Oct-04 17:18N 50°58' E 001°52'0 0.0
2017-Oct-04 16:51N 50°58' E 001°52'0 0.0
2017-Oct-04 16:26N 50°58' E 001°52'0 0.0
2017-Oct-04 15:59N 50°58' E 001°52'0 0.0
2017-Oct-04 15:23N 50°58' E 001°52'0 0.0
2017-Oct-04 14:50N 50°58' E 001°52'0 0.0
2017-Oct-04 14:29N 50°58' E 001°52'0 0.0
2017-Oct-04 13:52N 50°58' E 001°52'0 0.0
2017-Oct-04 13:28N 50°58' E 001°52'0 0.0
2017-Oct-04 12:58N 50°58' E 001°52'0 0.0
2017-Oct-04 12:25N 50°58' E 001°52'0 0.0
2017-Oct-04 11:55N 50°58' E 001°52'0 0.0
2017-Oct-04 11:30N 50°58' E 001°52'0 0.0
2017-Oct-04 11:00N 50°58' E 001°52'0 0.0
2017-Oct-04 10:30N 50°58' E 001°52'0 0.0
2017-Oct-04 09:48N 50°58' E 001°52'0 0.0
2017-Oct-04 09:29N 50°58' E 001°52'0 0.0
2017-Oct-04 08:53N 50°58' E 001°52'0 0.0
2017-Oct-04 08:29N 50°58' E 001°52'0 0.0
2017-Oct-04 07:59N 50°58' E 001°52'0 0.0
2017-Oct-04 07:26N 50°58' E 001°52'0 0.0
2017-Oct-04 06:58N 50°58' E 001°52'0 0.0
2017-Oct-04 06:28N 50°58' E 001°52'0 0.0
2017-Oct-04 05:58N 50°58' E 001°52'0 0.0
2017-Oct-04 05:22N 50°58' E 001°52'0 0.0
2017-Oct-04 04:42N 50°58' E 001°52'0 0.0
2017-Oct-04 04:30N 50°58' E 001°52'0 0.0
2017-Oct-04 04:00N 50°58' E 001°52'0 0.0
2017-Oct-04 03:27N 50°58' E 001°52'0 0.0
2017-Oct-04 02:57N 50°58' E 001°52'0 0.0
2017-Oct-04 02:29N 50°58' E 001°52'0 0.0
2017-Oct-04 01:56N 50°58' E 001°52'0 0.0
2017-Oct-04 01:26N 50°58' E 001°52'0 0.0
2017-Oct-04 00:59N 50°58' E 001°52'0 0.0
2017-Oct-04 00:23N 50°58' E 001°52'0 0.0
2017-Oct-03 23:58N 50°58' E 001°52'0 0.0
2017-Oct-03 23:28N 50°58' E 001°52'0 0.0
2017-Oct-03 22:58N 50°58' E 001°52'0 0.0
2017-Oct-03 22:16N 50°58' E 001°52'0 0.0
2017-Oct-03 21:58N 50°58' E 001°52'0 0.0
2017-Oct-03 21:24N 50°58' E 001°52'0 0.0
2017-Oct-03 21:00N 50°58' E 001°52'0 0.0
2017-Oct-03 20:30N 50°58' E 001°52'0 0.0
2017-Oct-03 20:00N 50°58' E 001°52'0 0.0
2017-Oct-03 19:26N 50°58' E 001°52'0 0.0
2017-Oct-03 18:56N 50°58' E 001°52'0 0.0
2017-Oct-03 17:44N 50°58' E 001°52'0 0.0
2017-Oct-03 17:22N 50°58' E 001°52'0 0.0
2017-Oct-03 15:13N 50°58' E 001°52'0 0.0
2017-Oct-03 13:42N 50°58' E 001°52'0 0.0
2017-Oct-03 13:24N 50°58' E 001°52'0 0.0
2017-Oct-03 12:45N 50°58' E 001°52'0 0.0
2017-Oct-03 12:29N 50°58' E 001°52'0 0.0
2017-Oct-03 11:59N 50°58' E 001°52'0 0.0
2017-Oct-03 11:29N 50°58' E 001°52'0 0.0
2017-Oct-03 10:56N 50°58' E 001°52'0 0.0
2017-Oct-03 10:29N 50°58' E 001°52'0 0.0
2017-Oct-03 09:52N 50°58' E 001°52'0 0.0
2017-Oct-03 09:28N 50°58' E 001°52'0 0.0
2017-Oct-03 08:58N 50°58' E 001°52'0 0.0
2017-Oct-03 08:28N 50°58' E 001°52'0 0.0
2017-Oct-03 07:54N 50°58' E 001°52'0 0.0
2017-Oct-03 07:30N 50°58' E 001°52'0 0.0
2017-Oct-03 06:57N 50°58' E 001°52'0 0.0
2017-Oct-03 06:24N 50°58' E 001°52'0 0.0
2017-Oct-03 06:00N 50°58' E 001°52'0 0.0
2017-Oct-03 05:29N 50°58' E 001°52'0 0.0
2017-Oct-03 04:59N 50°58' E 001°52'0 0.0
2017-Oct-03 04:29N 50°58' E 001°52'0 0.0
2017-Oct-03 03:59N 50°58' E 001°52'0 0.0
2017-Oct-03 03:29N 50°58' E 001°52'0 0.0
2017-Oct-03 02:55N 50°58' E 001°52'0 0.0
2017-Oct-03 02:28N 50°58' E 001°52'0 0.0
2017-Oct-03 01:55N 50°58' E 001°52'0 0.0
2017-Oct-03 01:28N 50°58' E 001°52'0 0.0
2017-Oct-03 00:51N 50°58' E 001°52'0 0.0
2017-Oct-03 00:30N 50°58' E 001°52'0 0.0
2017-Oct-03 00:00N 50°58' E 001°52'0 0.0
2017-Oct-02 23:30N 50°58' E 001°52'0 0.0
2017-Oct-02 23:00N 50°58' E 001°52'0 0.0
2017-Oct-02 22:29N 50°58' E 001°52'0 0.0
2017-Oct-02 21:59N 50°58' E 001°52'0 0.0
2017-Oct-02 21:29N 50°58' E 001°52'0 0.0
2017-Oct-02 20:59N 50°58' E 001°52'0 0.0
2017-Oct-02 20:29N 50°58' E 001°52'0 0.0
2017-Oct-02 19:52N 50°58' E 001°52'0 0.0
2017-Oct-02 19:28N 50°58' E 001°52'0 0.0
2017-Oct-02 18:58N 50°58' E 001°52'0 0.0
2017-Oct-02 18:25N 50°58' E 001°52'0 0.0
2017-Oct-02 18:00N 50°58' E 001°52'0 0.0
2017-Oct-02 17:30N 50°58' E 001°52'0 0.0
2017-Oct-02 16:57N 50°58' E 001°52'0 0.0
2017-Oct-02 16:30N 50°58' E 001°52'0 0.0
2017-Oct-02 15:57N 50°58' E 001°52'0 0.0
2017-Oct-02 15:23N 50°58' E 001°52'0 0.0
2017-Oct-02 14:59N 50°58' E 001°52'0 0.0
2017-Oct-02 14:23N 50°58' E 001°52'0 0.0
2017-Oct-02 13:56N 50°58' E 001°52'0 0.0
2017-Oct-02 13:29N 50°58' E 001°52'0 0.0
2017-Oct-02 12:55N 50°58' E 001°52'0 0.0
2017-Oct-02 12:25N 50°58' E 001°52'0 0.0
2017-Oct-02 11:58N 50°58' E 001°52'0 0.0
2017-Oct-02 11:28N 50°58' E 001°52'0 0.0
2017-Oct-02 11:00N 50°58' E 001°52'0 0.0
2017-Oct-02 10:30N 50°58' E 001°52'0 0.0
2017-Oct-02 10:00N 50°58' E 001°52'0 0.0
2017-Oct-02 09:30N 50°58' E 001°52'0 0.0
2017-Oct-02 09:00N 50°58' E 001°52'0 0.0
2017-Oct-02 08:29N 50°58' E 001°52'0 0.0
2017-Oct-02 07:59N 50°58' E 001°52'0 0.0
2017-Oct-02 07:29N 50°58' E 001°52'0 0.0
2017-Oct-02 06:56N 50°58' E 001°52'0 0.0
2017-Oct-02 06:22N 50°58' E 001°52'0 0.0
2017-Oct-02 05:58N 50°58' E 001°52'0 0.0
2017-Oct-02 05:28N 50°58' E 001°52'0 0.0
2017-Oct-02 04:58N 50°58' E 001°52'0 0.0
2017-Oct-02 04:25N 50°58' E 001°52'0 0.0
2017-Oct-02 03:54N 50°58' E 001°52'0 0.0
2017-Oct-02 03:30N 50°58' E 001°52'0 0.0
2017-Oct-02 03:00N 50°58' E 001°52'0 0.0
2017-Oct-02 02:30N 50°58' E 001°52'0 0.0
2017-Oct-02 01:57N 50°58' E 001°52'0 0.0
2017-Oct-02 01:29N 50°58' E 001°52'0 0.0
2017-Oct-02 00:59N 50°58' E 001°52'0 0.0
2017-Oct-02 00:23N 50°58' E 001°52'0 0.0
2017-Oct-01 23:56N 50°58' E 001°52'0 0.0
2017-Oct-01 23:28N 50°58' E 001°52'0 0.0
2017-Oct-01 22:55N 50°58' E 001°52'0 0.0
2017-Oct-01 22:25N 50°58' E 001°52'0 0.0
2017-Oct-01 21:58N 50°58' E 001°52'0 0.0
2017-Oct-01 21:28N 50°58' E 001°52'0 0.0
2017-Oct-01 21:00N 50°58' E 001°52'0 0.0
2017-Oct-01 20:18N 50°58' E 001°52'0 0.0
2017-Oct-01 19:57N 50°58' E 001°52'0 0.0
2017-Oct-01 19:30N 50°58' E 001°52'0 0.0
2017-Oct-01 18:53N 50°58' E 001°52'0 0.0
2017-Oct-01 18:20N 50°58' E 001°52'0 0.0
2017-Oct-01 17:59N 50°58' E 001°52'0 0.0
2017-Oct-01 17:23N 50°58' E 001°52'0 0.0
2017-Oct-01 16:56N 50°58' E 001°52'0 0.0
2017-Oct-01 16:28N 50°58' E 001°52'0 0.0
2017-Oct-01 15:58N 50°58' E 001°52'0 0.0
2017-Oct-01 15:28N 50°58' E 001°52'0 0.0
2017-Oct-01 14:58N 50°58' E 001°52'0 0.0
2017-Oct-01 14:24N 50°58' E 001°52'0 0.0
2017-Oct-01 13:57N 50°58' E 001°52'0 0.0
2017-Oct-01 13:30N 50°58' E 001°52'0 0.0
2017-Oct-01 12:48N 50°58' E 001°52'0 0.0
2017-Oct-01 12:24N 50°58' E 001°52'0 0.0
2017-Oct-01 11:59N 50°58' E 001°52'0 0.0
2017-Oct-01 11:29N 50°58' E 001°52'0 0.0
2017-Oct-01 10:53N 50°58' E 001°52'0 0.0
2017-Oct-01 10:29N 50°58' E 001°52'0 0.0
2017-Oct-01 09:59N 50°58' E 001°52'0 0.0
2017-Oct-01 09:28N 50°58' E 001°52'0 0.0
2017-Oct-01 08:55N 50°58' E 001°52'0 0.0
2017-Oct-01 08:22N 50°58' E 001°52'0 0.0
2017-Oct-01 07:58N 50°58' E 001°52'0 0.0
2017-Oct-01 07:31N 50°58' E 001°52'0 0.0
2017-Oct-01 06:54N 50°58' E 001°52'0 0.0
2017-Oct-01 06:24N 50°58' E 001°52'0 0.0
2017-Oct-01 05:57N 50°58' E 001°52'0 0.0
2017-Oct-01 05:12N 50°58' E 001°52'0 0.0
2017-Oct-01 04:59N 50°58' E 001°52'0 0.0
2017-Oct-01 04:26N 50°58' E 001°52'0 0.0
2017-Oct-01 03:59N 50°58' E 001°52'0 0.0
2017-Oct-01 03:17N 50°58' E 001°52'0 0.0
2017-Oct-01 02:59N 50°58' E 001°52'  
Track history (hours):
 
Tides and Currents Weather Stations Pressure Air Temp Water Temp Dewpoint Dewpoint Depression Visibility Wind Speed Wind Dir Waves Ship Positions

Filia Ariea

Last reported at 2017-Oct-10 12:46 UTC. Time now 2017-Oct-19 15:10 UTC.
Position N 49°46' W 003°25'.
Warning: this ship's position is 9 days out of date.

Length 90 m; draft 3.5 m.

Type: Ship. MMSI: 244662000.

Date/timePositionNaut miles runAvg speedWind from/ knotsBaromVisibWave heightAir tempDewpointWater temp
2017-Oct-10 12:46N 49°46' W 003°25'310.3
2017-Oct-10 12:31N 49°48' W 003°22'5 9.8
2017-Oct-10 12:00N 49°50' W 003°15'6 9.2
2017-Oct-10 11:22N 49°53' W 003°07'3 8.9
2017-Oct-10 11:00N 49°55' W 003°03'4 8.6
2017-Oct-10 10:30N 49°57' W 002°57'5 8.4
2017-Oct-10 09:55N 49°58' W 002°50'3 8.3
2017-Oct-10 09:30N 49°59' W 002°45'9311.5
2017-Oct-10 01:21N 50°27' W 000°25'4 9.9
2017-Oct-10 01:00N 50°28' W 000°20'5 9.4
2017-Oct-10 00:30N 50°30' W 000°13'4 9.0
2017-Oct-10 00:00N 50°31' W 000°07'4 8.5
2017-Oct-09 23:30N 50°32' W 000°00'4 8.2
2017-Oct-09 23:00N 50°33' E 000°06'4 8.4
2017-Oct-09 22:30N 50°35' E 000°12'4 8.7
2017-Oct-09 22:01N 50°36' E 000°19'5 9.2
2017-Oct-09 21:30N 50°37' E 000°26'510.1
2017-Oct-09 21:00N 50°38' E 000°34'511.0
2017-Oct-09 20:31N 50°41' E 000°41'611.5
2017-Oct-09 20:00N 50°44' E 000°49'611.8
2017-Oct-09 19:30N 50°47' E 000°57'611.6
2017-Oct-09 18:58N 50°50' E 001°05'511.3
2017-Oct-09 18:30N 50°53' E 001°12'610.9
2017-Oct-09 18:00N 50°56' E 001°20'510.3
2017-Oct-09 17:30N 50°60' E 001°26'5 9.2
2017-Oct-09 16:59N 51°03' E 001°31'4 8.1
2017-Oct-09 16:30N 51°02' E 001°37'5 9.9
2017-Oct-09 16:00N 50°59' E 001°44'4 7.7
2017-Oct-09 15:30N 50°58' E 001°50'2 1.2
2017-Oct-09 14:14N 50°58' E 001°52'0 0.0
2017-Oct-09 11:59N 50°58' E 001°52'0 0.0
2017-Oct-09 11:28N 50°58' E 001°52'0 0.0
2017-Oct-09 09:33N 50°58' E 001°52'0 0.0
2017-Oct-09 09:27N 50°58' E 001°52'0 0.0
2017-Oct-09 09:00N 50°58' E 001°52'0 0.0
2017-Oct-09 08:30N 50°58' E 001°52'0 0.0
2017-Oct-09 07:45N 50°58' E 001°52'0 0.0
2017-Oct-09 07:05N 50°58' E 001°52'0 0.0
2017-Oct-09 06:47N 50°58' E 001°52'0 0.0
2017-Oct-09 06:20N 50°58' E 001°52'0 0.0
2017-Oct-09 05:56N 50°58' E 001°52'0 0.0
2017-Oct-09 05:20N 50°58' E 001°52'0 0.0
2017-Oct-09 04:58N 50°58' E 001°52'0 0.0
2017-Oct-09 04:25N 50°58' E 001°52'0 0.0
2017-Oct-09 03:55N 50°58' E 001°52'0 0.0
2017-Oct-09 03:28N 50°58' E 001°52'0 0.0
2017-Oct-09 03:01N 50°58' E 001°52'0 0.0
2017-Oct-09 02:21N 50°58' E 001°52'0 0.0
2017-Oct-09 01:57N 50°58' E 001°52'0 0.0
2017-Oct-09 01:30N 50°58' E 001°52'0 0.0
2017-Oct-09 01:00N 50°58' E 001°52'0 0.0
2017-Oct-09 00:29N 50°58' E 001°52'0 0.0
2017-Oct-08 23:59N 50°58' E 001°52'0 0.0
2017-Oct-08 23:29N 50°58' E 001°52'0 0.0
2017-Oct-08 22:53N 50°58' E 001°52'0 0.0
2017-Oct-08 22:23N 50°58' E 001°52'0 0.0
2017-Oct-08 21:58N 50°58' E 001°52'0 0.0
2017-Oct-08 21:16N 50°58' E 001°52'0 0.0
2017-Oct-08 20:58N 50°58' E 001°52'0 0.0
2017-Oct-08 20:28N 50°58' E 001°52'0 0.0
2017-Oct-08 19:15N 50°58' E 001°52'0 0.0
2017-Oct-08 18:51N 50°58' E 001°52'0 0.0
2017-Oct-08 18:15N 50°58' E 001°52'0 0.0
2017-Oct-08 17:51N 50°58' E 001°52'0 0.0
2017-Oct-08 17:26N 50°58' E 001°52'0 0.0
2017-Oct-08 16:29N 50°58' E 001°52'0 0.0
2017-Oct-08 15:38N 50°58' E 001°52'0 0.0
2017-Oct-08 15:13N 50°58' E 001°52'0 0.0
2017-Oct-08 14:46N 50°58' E 001°52'0 0.0
2017-Oct-08 14:07N 50°58' E 001°52'0 0.0
2017-Oct-08 11:54N 50°58' E 001°52'0 0.0
2017-Oct-08 11:30N 50°58' E 001°52'0 0.0
2017-Oct-08 11:00N 50°58' E 001°52'0 0.0
2017-Oct-08 10:26N 50°58' E 001°52'0 0.0
2017-Oct-08 09:59N 50°58' E 001°52'0 0.0
2017-Oct-08 09:23N 50°58' E 001°52'0 0.0
2017-Oct-08 08:53N 50°58' E 001°52'0 0.0
2017-Oct-08 08:22N 50°58' E 001°52'0 0.0
2017-Oct-08 07:58N 50°58' E 001°52'0 0.0
2017-Oct-08 07:22N 50°58' E 001°52'0 0.0
2017-Oct-08 06:10N 50°58' E 001°52'0 0.0
2017-Oct-08 06:00N 50°58' E 001°52'0 0.0
2017-Oct-08 05:30N 50°58' E 001°52'0 0.0
2017-Oct-08 04:57N 50°58' E 001°52'0 0.0
2017-Oct-08 04:24N 50°58' E 001°52'0 0.0
2017-Oct-08 03:36N 50°58' E 001°52'0 0.0
2017-Oct-08 03:29N 50°58' E 001°52'0 0.0
2017-Oct-08 02:59N 50°58' E 001°52'0 0.0
2017-Oct-08 02:29N 50°58' E 001°52'0 0.0
2017-Oct-08 01:44N 50°58' E 001°52'0 0.0
2017-Oct-08 01:19N 50°58' E 001°52'0 0.0
2017-Oct-08 00:52N 50°58' E 001°52'0 0.0
2017-Oct-08 00:19N 50°58' E 001°52'0 0.0
2017-Oct-07 23:55N 50°58' E 001°52'0 0.0
2017-Oct-07 23:25N 50°58' E 001°52'0 0.0
2017-Oct-07 22:54N 50°58' E 001°52'0 0.0
2017-Oct-07 22:30N 50°58' E 001°52'0 0.0
2017-Oct-07 22:00N 50°58' E 001°52'0 0.0
2017-Oct-07 21:30N 50°58' E 001°52'0 0.0
2017-Oct-07 20:47N 50°58' E 001°52'0 0.0
2017-Oct-07 20:23N 50°58' E 001°52'0 0.0
2017-Oct-07 18:53N 50°58' E 001°52'0 0.0
2017-Oct-07 18:28N 50°58' E 001°52'0 0.0
2017-Oct-07 17:46N 50°58' E 001°52'0 0.0
2017-Oct-07 17:28N 50°58' E 001°52'0 0.0
2017-Oct-07 16:58N 50°58' E 001°52'0 0.0
2017-Oct-07 16:16N 50°58' E 001°52'0 0.0
2017-Oct-07 16:00N 50°58' E 001°52'0 0.0
2017-Oct-07 15:24N 50°58' E 001°52'0 0.0
2017-Oct-07 14:48N 50°58' E 001°52'0 0.0
2017-Oct-07 14:30N 50°58' E 001°52'0 0.0
2017-Oct-07 14:00N 50°58' E 001°52'0 0.0
2017-Oct-07 12:38N 50°58' E 001°52'0 0.0
2017-Oct-07 12:20N 50°58' E 001°52'0 0.0
2017-Oct-07 11:59N 50°58' E 001°52'0 0.0
2017-Oct-07 11:22N 50°58' E 001°52'0 0.0
2017-Oct-07 10:58N 50°58' E 001°52'0 0.0
2017-Oct-07 10:10N 50°58' E 001°52'0 0.0
2017-Oct-07 09:55N 50°58' E 001°52'0 0.0
2017-Oct-07 09:28N 50°58' E 001°52'0 0.0
2017-Oct-07 09:00N 50°58' E 001°52'0 0.0
2017-Oct-07 08:30N 50°58' E 001°52'0 0.0
2017-Oct-07 08:00N 50°58' E 001°52'0 0.0
2017-Oct-07 07:12N 50°58' E 001°52'0 0.0
2017-Oct-07 06:47N 50°58' E 001°52'0 0.0
2017-Oct-07 06:23N 50°58' E 001°52'0 0.0
2017-Oct-07 05:59N 50°58' E 001°52'0 0.0
2017-Oct-07 05:29N 50°58' E 001°52'0 0.0
2017-Oct-07 04:59N 50°58' E 001°52'0 0.0
2017-Oct-07 04:25N 50°58' E 001°52'0 0.0
2017-Oct-07 03:55N 50°58' E 001°52'0 0.0
2017-Oct-07 03:28N 50°58' E 001°52'0 0.0
2017-Oct-07 02:58N 50°58' E 001°52'0 0.0
2017-Oct-07 02:22N 50°58' E 001°52'0 0.0
2017-Oct-07 01:57N 50°58' E 001°52'0 0.0
2017-Oct-07 01:21N 50°58' E 001°52'0 0.0
2017-Oct-07 00:57N 50°58' E 001°52'0 0.0
2017-Oct-07 00:24N 50°58' E 001°52'0 0.0
2017-Oct-06 23:56N 50°58' E 001°52'0 0.0
2017-Oct-06 23:20N 50°58' E 001°52'0 0.0
2017-Oct-06 22:50N 50°58' E 001°52'0 0.0
2017-Oct-06 22:26N 50°58' E 001°52'0 0.0
2017-Oct-06 21:59N 50°58' E 001°52'0 0.0
2017-Oct-06 21:22N 50°58' E 001°52'0 0.0
2017-Oct-06 20:55N 50°58' E 001°52'0 0.0
2017-Oct-06 20:25N 50°58' E 001°52'0 0.0
2017-Oct-06 19:46N 50°58' E 001°52'0 0.0
2017-Oct-06 19:15N 50°58' E 001°52'0 0.0
2017-Oct-06 19:00N 50°58' E 001°52'0 0.0
2017-Oct-06 18:30N 50°58' E 001°52'0 0.0
2017-Oct-06 18:00N 50°58' E 001°52'0 0.0
2017-Oct-06 17:30N 50°58' E 001°52'0 0.0
2017-Oct-06 17:00N 50°58' E 001°52'0 0.0
2017-Oct-06 16:29N 50°58' E 001°52'0 0.0
2017-Oct-06 14:41N 50°58' E 001°52'0 0.0
2017-Oct-06 14:16N 50°58' E 001°52'0 0.0
2017-Oct-06 13:16N 50°58' E 001°52'0 0.0
2017-Oct-06 12:52N 50°58' E 001°52'0 0.0
2017-Oct-06 12:12N 50°58' E 001°52'0 0.0
2017-Oct-06 11:51N 50°58' E 001°52'0 0.0
2017-Oct-06 11:27N 50°58' E 001°52'0 0.0
2017-Oct-06 10:33N 50°58' E 001°52'0 0.0
2017-Oct-06 10:27N 50°58' E 001°52'0 0.0
2017-Oct-06 08:59N 50°58' E 001°52'0 0.0
2017-Oct-06 08:14N 50°58' E 001°52'0 0.0
2017-Oct-06 07:53N 50°58' E 001°52'0 0.0
2017-Oct-06 07:28N 50°58' E 001°52'0 0.0
2017-Oct-06 06:58N 50°58' E 001°52'0 0.0
2017-Oct-06 06:22N 50°58' E 001°52'0 0.0
2017-Oct-06 05:58N 50°58' E 001°52'0 0.0
2017-Oct-06 05:31N 50°58' E 001°52'0 0.0
2017-Oct-06 04:51N 50°58' E 001°52'0 0.0
2017-Oct-06 04:24N 50°58' E 001°52'0 0.0
2017-Oct-06 04:00N 50°58' E 001°52'0 0.0
2017-Oct-06 03:21N 50°58' E 001°52'0 0.0
2017-Oct-06 02:56N 50°58' E 001°52'0 0.0
2017-Oct-06 02:29N 50°58' E 001°52'0 0.0
2017-Oct-06 01:59N 50°58' E 001°52'0 0.0
2017-Oct-06 01:26N 50°58' E 001°52'0 0.0
2017-Oct-06 00:59N 50°58' E 001°52'0 0.0
2017-Oct-06 00:22N 50°58' E 001°52'0 0.0
2017-Oct-05 23:46N 50°58' E 001°52'0 0.0
2017-Oct-05 23:25N 50°58' E 001°52'0 0.0
2017-Oct-05 22:58N 50°58' E 001°52'0 0.0
2017-Oct-05 22:30N 50°58' E 001°52'0 0.0
2017-Oct-05 22:00N 50°58' E 001°52'0 0.0
2017-Oct-05 21:30N 50°58' E 001°52'0 0.0
2017-Oct-05 20:51N 50°58' E 001°52'0 0.0
2017-Oct-05 20:27N 50°58' E 001°52'0 0.0
2017-Oct-05 19:59N 50°58' E 001°52'0 0.0
2017-Oct-05 19:29N 50°58' E 001°52'0 0.0
2017-Oct-05 18:53N 50°58' E 001°52'0 0.0
2017-Oct-05 18:26N 50°58' E 001°52'0 0.0
2017-Oct-05 17:31N 50°58' E 001°52'0 0.0
2017-Oct-05 17:28N 50°58' E 001°52'0 0.0
2017-Oct-05 16:52N 50°58' E 001°52'0 0.0
2017-Oct-05 15:27N 50°58' E 001°52'0 0.0
2017-Oct-05 14:51N 50°58' E 001°52'0 0.0
2017-Oct-05 14:27N 50°58' E 001°52'0 0.0
2017-Oct-05 14:00N 50°58' E 001°52'0 0.0
2017-Oct-05 13:30N 50°58' E 001°52'0 0.0
2017-Oct-05 12:53N 50°58' E 001°52'0 0.0
2017-Oct-05 12:29N 50°58' E 001°52'0 0.0
2017-Oct-05 11:59N 50°58' E 001°52'0 0.0
2017-Oct-05 11:23N 50°58' E 001°52'0 0.0
2017-Oct-05 10:59N 50°58' E 001°52'0 0.0
2017-Oct-05 10:22N 50°58' E 001°52'0 0.0
2017-Oct-05 09:58N 50°58' E 001°52'0 0.0
2017-Oct-05 09:28N 50°58' E 001°52'0 0.0
2017-Oct-05 08:52N 50°58' E 001°52'0 0.0
2017-Oct-05 08:15N 50°58' E 001°52'0 0.0
2017-Oct-05 08:00N 50°58' E 001°52'0 0.0
2017-Oct-05 07:30N 50°58' E 001°52'0 0.0
2017-Oct-05 06:57N 50°58' E 001°52'0 0.0
2017-Oct-05 06:30N 50°58' E 001°52'0 0.0
2017-Oct-05 05:56N 50°58' E 001°52'0 0.0
2017-Oct-05 05:26N 50°58' E 001°52'0 0.0
2017-Oct-05 04:59N 50°58' E 001°52'0 0.0
2017-Oct-05 04:20N 50°58' E 001°52'0 0.0
2017-Oct-05 03:59N 50°58' E 001°52'0 0.0
2017-Oct-05 03:22N 50°58' E 001°52'0 0.0
2017-Oct-05 02:58N 50°58' E 001°52'0 0.0
2017-Oct-05 02:28N 50°58' E 001°52'0 0.0
2017-Oct-05 01:55N 50°58' E 001°52'0 0.0
2017-Oct-05 01:30N 50°58' E 001°52'0 0.0
2017-Oct-05 00:54N 50°58' E 001°52'0 0.0
2017-Oct-05 00:27N 50°58' E 001°52'0 0.0
2017-Oct-04 23:57N 50°58' E 001°52'0 0.0
2017-Oct-04 23:30N 50°58' E 001°52'0 0.0
2017-Oct-04 22:59N 50°58' E 001°52'0 0.0
2017-Oct-04 22:20N 50°58' E 001°52'0 0.0
2017-Oct-04 21:56N 50°58' E 001°52'0 0.0
2017-Oct-04 21:29N 50°58' E 001°52'0 0.0
2017-Oct-04 20:58N 50°58' E 001°52'0 0.0
2017-Oct-04 20:28N 50°58' E 001°52'0 0.0
2017-Oct-04 19:58N 50°58' E 001°52'0 0.0
2017-Oct-04 19:22N 50°58' E 001°52'0 0.0
2017-Oct-04 18:52N 50°58' E 001°52'0 0.0
2017-Oct-04 18:15N 50°58' E 001°52'0 0.0
2017-Oct-04 17:57N 50°58' E 001°52'0 0.0
2017-Oct-04 17:18N 50°58' E 001°52'0 0.0
2017-Oct-04 16:51N 50°58' E 001°52'0 0.0
2017-Oct-04 16:26N 50°58' E 001°52'0 0.0
2017-Oct-04 15:59N 50°58' E 001°52'0 0.0
2017-Oct-04 15:23N 50°58' E 001°52'0 0.0
2017-Oct-04 14:50N 50°58' E 001°52'0 0.0
2017-Oct-04 14:29N 50°58' E 001°52'0 0.0
2017-Oct-04 13:52N 50°58' E 001°52'0 0.0
2017-Oct-04 13:28N 50°58' E 001°52'0 0.0
2017-Oct-04 12:58N 50°58' E 001°52'0 0.0
2017-Oct-04 12:25N 50°58' E 001°52'0 0.0
2017-Oct-04 11:55N 50°58' E 001°52'0 0.0
2017-Oct-04 11:30N 50°58' E 001°52'0 0.0
2017-Oct-04 11:00N 50°58' E 001°52'0 0.0
2017-Oct-04 10:30N 50°58' E 001°52'0 0.0
2017-Oct-04 09:48N 50°58' E 001°52'0 0.0
2017-Oct-04 09:29N 50°58' E 001°52'0 0.0
2017-Oct-04 08:53N 50°58' E 001°52'0 0.0
2017-Oct-04 08:29N 50°58' E 001°52'0 0.0
2017-Oct-04 07:59N 50°58' E 001°52'0 0.0
2017-Oct-04 07:26N 50°58' E 001°52'0 0.0
2017-Oct-04 06:58N 50°58' E 001°52'0 0.0
2017-Oct-04 06:28N 50°58' E 001°52'0 0.0
2017-Oct-04 05:58N 50°58' E 001°52'0 0.0
2017-Oct-04 05:22N 50°58' E 001°52'0 0.0
2017-Oct-04 04:42N 50°58' E 001°52'0 0.0
2017-Oct-04 04:30N 50°58' E 001°52'0 0.0
2017-Oct-04 04:00N 50°58' E 001°52'0 0.0
2017-Oct-04 03:27N 50°58' E 001°52'0 0.0
2017-Oct-04 02:57N 50°58' E 001°52'0 0.0
2017-Oct-04 02:29N 50°58' E 001°52'0 0.0
2017-Oct-04 01:56N 50°58' E 001°52'0 0.0
2017-Oct-04 01:26N 50°58' E 001°52'0 0.0
2017-Oct-04 00:59N 50°58' E 001°52'0 0.0
2017-Oct-04 00:23N 50°58' E 001°52'0 0.0
2017-Oct-03 23:58N 50°58' E 001°52'0 0.0
2017-Oct-03 23:28N 50°58' E 001°52'0 0.0
2017-Oct-03 22:58N 50°58' E 001°52'0 0.0
2017-Oct-03 22:16N 50°58' E 001°52'0 0.0
2017-Oct-03 21:58N 50°58' E 001°52'0 0.0
2017-Oct-03 21:24N 50°58' E 001°52'0 0.0
2017-Oct-03 21:00N 50°58' E 001°52'0 0.0
2017-Oct-03 20:30N 50°58' E 001°52'0 0.0
2017-Oct-03 20:00N 50°58' E 001°52'0 0.0
2017-Oct-03 19:26N 50°58' E 001°52'0 0.0
2017-Oct-03 18:56N 50°58' E 001°52'0 0.0
2017-Oct-03 17:44N 50°58' E 001°52'0 0.0
2017-Oct-03 17:22N 50°58' E 001°52'0 0.0
2017-Oct-03 15:13N 50°58' E 001°52'0 0.0
2017-Oct-03 13:42N 50°58' E 001°52'0 0.0
2017-Oct-03 13:24N 50°58' E 001°52'0 0.0
2017-Oct-03 12:45N 50°58' E 001°52'0 0.0
2017-Oct-03 12:29N 50°58' E 001°52'0 0.0
2017-Oct-03 11:59N 50°58' E 001°52'0 0.0
2017-Oct-03 11:29N 50°58' E 001°52'0 0.0
2017-Oct-03 10:56N 50°58' E 001°52'0 0.0
2017-Oct-03 10:29N 50°58' E 001°52'0 0.0
2017-Oct-03 09:52N 50°58' E 001°52'0 0.0
2017-Oct-03 09:28N 50°58' E 001°52'0 0.0
2017-Oct-03 08:58N 50°58' E 001°52'0 0.0
2017-Oct-03 08:28N 50°58' E 001°52'0 0.0
2017-Oct-03 07:54N 50°58' E 001°52'0 0.0
2017-Oct-03 07:30N 50°58' E 001°52'0 0.0
2017-Oct-03 06:57N 50°58' E 001°52'0 0.0
2017-Oct-03 06:24N 50°58' E 001°52'0 0.0
2017-Oct-03 06:00N 50°58' E 001°52'0 0.0
2017-Oct-03 05:29N 50°58' E 001°52'0 0.0
2017-Oct-03 04:59N 50°58' E 001°52'0 0.0
2017-Oct-03 04:29N 50°58' E 001°52'0 0.0
2017-Oct-03 03:59N 50°58' E 001°52'0 0.0
2017-Oct-03 03:29N 50°58' E 001°52'0 0.0
2017-Oct-03 02:55N 50°58' E 001°52'0 0.0
2017-Oct-03 02:28N 50°58' E 001°52'0 0.0
2017-Oct-03 01:55N 50°58' E 001°52'0 0.0
2017-Oct-03 01:28N 50°58' E 001°52'0 0.0
2017-Oct-03 00:51N 50°58' E 001°52'0 0.0
2017-Oct-03 00:30N 50°58' E 001°52'0 0.0
2017-Oct-03 00:00N 50°58' E 001°52'0 0.0
2017-Oct-02 23:30N 50°58' E 001°52'0 0.0
2017-Oct-02 23:00N 50°58' E 001°52'0 0.0
2017-Oct-02 22:29N 50°58' E 001°52'0 0.0
2017-Oct-02 21:59N 50°58' E 001°52'0 0.0
2017-Oct-02 21:29N 50°58' E 001°52'0 0.0
2017-Oct-02 20:59N 50°58' E 001°52'0 0.0
2017-Oct-02 20:29N 50°58' E 001°52'0 0.0
2017-Oct-02 19:52N 50°58' E 001°52'0 0.0
2017-Oct-02 19:28N 50°58' E 001°52'0 0.0
2017-Oct-02 18:58N 50°58' E 001°52'0 0.0
2017-Oct-02 18:25N 50°58' E 001°52'0 0.0
2017-Oct-02 18:00N 50°58' E 001°52'0 0.0
2017-Oct-02 17:30N 50°58' E 001°52'0 0.0
2017-Oct-02 16:57N 50°58' E 001°52'0 0.0
2017-Oct-02 16:30N 50°58' E 001°52'0 0.0
2017-Oct-02 15:57N 50°58' E 001°52'0 0.0
2017-Oct-02 15:23N 50°58' E 001°52'0 0.0
2017-Oct-02 14:59N 50°58' E 001°52'0 0.0
2017-Oct-02 14:23N 50°58' E 001°52'0 0.0
2017-Oct-02 13:56N 50°58' E 001°52'0 0.0
2017-Oct-02 13:29N 50°58' E 001°52'0 0.0
2017-Oct-02 12:55N 50°58' E 001°52'0 0.0
2017-Oct-02 12:25N 50°58' E 001°52'0 0.0
2017-Oct-02 11:58N 50°58' E 001°52'0 0.0
2017-Oct-02 11:28N 50°58' E 001°52'0 0.0
2017-Oct-02 11:00N 50°58' E 001°52'0 0.0
2017-Oct-02 10:30N 50°58' E 001°52'0 0.0
2017-Oct-02 10:00N 50°58' E 001°52'0 0.0
2017-Oct-02 09:30N 50°58' E 001°52'0 0.0
2017-Oct-02 09:00N 50°58' E 001°52'0 0.0
2017-Oct-02 08:29N 50°58' E 001°52'0 0.0
2017-Oct-02 07:59N 50°58' E 001°52'0 0.0
2017-Oct-02 07:29N 50°58' E 001°52'0 0.0
2017-Oct-02 06:56N 50°58' E 001°52'0 0.0
2017-Oct-02 06:22N 50°58' E 001°52'0 0.0
2017-Oct-02 05:58N 50°58' E 001°52'0 0.0
2017-Oct-02 05:28N 50°58' E 001°52'0 0.0
2017-Oct-02 04:58N 50°58' E 001°52'0 0.0
2017-Oct-02 04:25N 50°58' E 001°52'0 0.0
2017-Oct-02 03:54N 50°58' E 001°52'0 0.0
2017-Oct-02 03:30N 50°58' E 001°52'0 0.0
2017-Oct-02 03:00N 50°58' E 001°52'0 0.0
2017-Oct-02 02:30N 50°58' E 001°52'0 0.0
2017-Oct-02 01:57N 50°58' E 001°52'0 0.0
2017-Oct-02 01:29N 50°58' E 001°52'0 0.0
2017-Oct-02 00:59N 50°58' E 001°52'0 0.0
2017-Oct-02 00:23N 50°58' E 001°52'0 0.0
2017-Oct-01 23:56N 50°58' E 001°52'0 0.0
2017-Oct-01 23:28N 50°58' E 001°52'0 0.0
2017-Oct-01 22:55N 50°58' E 001°52'0 0.0
2017-Oct-01 22:25N 50°58' E 001°52'0 0.0
2017-Oct-01 21:58N 50°58' E 001°52'0 0.0
2017-Oct-01 21:28N 50°58' E 001°52'0 0.0
2017-Oct-01 21:00N 50°58' E 001°52'0 0.0
2017-Oct-01 20:18N 50°58' E 001°52'0 0.0
2017-Oct-01 19:57N 50°58' E 001°52'0 0.0
2017-Oct-01 19:30N 50°58' E 001°52'0 0.0
2017-Oct-01 18:53N 50°58' E 001°52'0 0.0
2017-Oct-01 18:20N 50°58' E 001°52'0 0.0
2017-Oct-01 17:59N 50°58' E 001°52'0 0.0
2017-Oct-01 17:23N 50°58' E 001°52'0 0.0
2017-Oct-01 16:56N 50°58' E 001°52'0 0.0
2017-Oct-01 16:28N 50°58' E 001°52'0 0.0
2017-Oct-01 15:58N 50°58' E 001°52'0 0.0
2017-Oct-01 15:28N 50°58' E 001°52'0 0.0
2017-Oct-01 14:58N 50°58' E 001°52'0 0.0
2017-Oct-01 14:24N 50°58' E 001°52'0 0.0
2017-Oct-01 13:57N 50°58' E 001°52'0 0.0
2017-Oct-01 13:30N 50°58' E 001°52'0 0.0
2017-Oct-01 12:48N 50°58' E 001°52'0 0.0
2017-Oct-01 12:24N 50°58' E 001°52'0 0.0
2017-Oct-01 11:59N 50°58' E 001°52'0 0.0
2017-Oct-01 11:29N 50°58' E 001°52'0 0.0
2017-Oct-01 10:53N 50°58' E 001°52'0 0.0
2017-Oct-01 10:29N 50°58' E 001°52'0 0.0
2017-Oct-01 09:59N 50°58' E 001°52'0 0.0
2017-Oct-01 09:28N 50°58' E 001°52'0 0.0
2017-Oct-01 08:55N 50°58' E 001°52'0 0.0
2017-Oct-01 08:22N 50°58' E 001°52'0 0.0
2017-Oct-01 07:58N 50°58' E 001°52'0 0.0
2017-Oct-01 07:31N 50°58' E 001°52'0 0.0
2017-Oct-01 06:54N 50°58' E 001°52'0 0.0
2017-Oct-01 06:24N 50°58' E 001°52'0 0.0
2017-Oct-01 05:57N 50°58' E 001°52'0 0.0
2017-Oct-01 05:12N 50°58' E 001°52'0 0.0
2017-Oct-01 04:59N 50°58' E 001°52'0 0.0
2017-Oct-01 04:26N 50°58' E 001°52'0 0.0
2017-Oct-01 03:59N 50°58' E 001°52'0 0.0
2017-Oct-01 03:17N 50°58' E 001°52'0 0.0
2017-Oct-01 02:59N 50°58' E 001°52'  

Dump ship's entire track history